createdAt,value
2018-03-27T00:01:39.751Z,94.60
2018-03-27T00:03:42.430Z,94.60
2018-03-27T00:05:45.857Z,94.70
2018-03-27T00:07:48.495Z,94.70
2018-03-27T00:09:51.901Z,94.10
2018-03-27T00:11:54.512Z,94.10
2018-03-27T00:13:57.139Z,94.50
2018-03-27T00:16:00.553Z,94.40
2018-03-27T00:18:03.224Z,94.40
2018-03-27T00:20:05.845Z,94.50
2018-03-27T00:22:08.486Z,94.20
2018-03-27T00:24:11.094Z,94.60
2018-03-27T00:26:13.791Z,94.80
2018-03-27T00:28:28.079Z,94.70
2018-03-27T00:30:42.619Z,94.40
2018-03-27T00:32:57.839Z,94.60
2018-03-27T00:35:13.108Z,94.90
2018-03-27T00:37:27.514Z,94.90
2018-03-27T00:39:42.662Z,95.10
2018-03-27T00:44:29.971Z,94.90
2018-03-27T00:46:32.599Z,94.80
2018-03-27T00:48:35.963Z,95.20
2018-03-27T00:50:38.582Z,95.10
2018-03-27T00:52:41.946Z,95.30
2018-03-27T00:54:44.533Z,95.30
2018-03-27T00:56:47.907Z,95.30
2018-03-27T00:58:50.532Z,95.20
2018-03-27T01:00:53.119Z,95.20
2018-03-27T01:02:55.735Z,94.80
2018-03-27T01:05:03.956Z,94.70
2018-03-27T01:07:07.422Z,95.50
2018-03-27T01:09:10.014Z,95.50
2018-03-27T01:11:13.395Z,95.70
2018-03-27T01:13:15.999Z,95.60
2018-03-27T01:15:18.594Z,95.70
2018-03-27T01:17:21.207Z,95.70
2018-03-27T01:19:23.838Z,95.90
2018-03-27T01:21:26.476Z,95.70
2018-03-27T01:23:29.070Z,95.60
2018-03-27T01:25:32.445Z,95.70
2018-03-27T01:27:35.803Z,96.10
2018-03-27T01:29:38.949Z,96.10
2018-03-27T01:31:41.628Z,95.70
2018-03-27T01:33:44.230Z,95.80
2018-03-27T01:35:46.834Z,95.40
2018-03-27T01:37:49.450Z,95.70
2018-03-27T01:39:52.058Z,95.60
2018-03-27T01:41:54.823Z,95.80
2018-03-27T01:43:57.451Z,95.60
2018-03-27T01:46:00.806Z,95.90
2018-03-27T01:48:03.418Z,95.90
2018-03-27T01:50:06.810Z,96.10
2018-03-27T01:52:10.175Z,95.80
2018-03-27T01:54:12.799Z,95.80
2018-03-27T01:56:15.443Z,96.10
2018-03-27T01:58:18.827Z,95.90
2018-03-27T02:00:21.447Z,95.80
2018-03-27T02:02:24.034Z,95.80
2018-03-27T02:04:26.634Z,95.70
2018-03-27T02:06:29.258Z,95.50
2018-03-27T02:08:31.885Z,96.20
2018-03-27T02:10:33.981Z,96.50
2018-03-27T02:12:42.991Z,97.40
2018-03-27T02:14:51.098Z,97.40
2018-03-27T02:16:59.446Z,97.20
2018-03-27T02:19:07.725Z,96.80
2018-03-27T02:21:16.630Z,96.50
2018-03-27T02:23:20.054Z,96.40
2018-03-27T02:25:23.433Z,96.90
2018-03-27T02:27:26.819Z,96.70
2018-03-27T02:29:29.421Z,96.70
2018-03-27T02:31:32.012Z,96.90
2018-03-27T02:33:34.630Z,96.60
2018-03-27T02:35:37.267Z,96.60
2018-03-27T02:37:39.877Z,96.50
2018-03-27T02:39:42.479Z,96.50
2018-03-27T02:41:45.170Z,96.10
2018-03-27T02:43:47.774Z,96.40
2018-03-27T02:45:50.442Z,96.40
2018-03-27T02:47:53.039Z,96.40
2018-03-27T02:49:55.666Z,96.50
2018-03-27T02:51:58.273Z,96.20
2018-03-27T02:54:00.899Z,95.70
2018-03-27T02:56:03.526Z,95.80
2018-03-27T02:58:06.278Z,96.00
2018-03-27T03:00:08.870Z,95.80
2018-03-27T03:02:11.482Z,95.80
2018-03-27T03:04:14.127Z,95.70
2018-03-27T03:06:16.734Z,95.90
2018-03-27T03:08:19.346Z,95.90
2018-03-27T03:10:22.058Z,95.90
2018-03-27T03:12:24.669Z,95.90
2018-03-27T03:14:28.031Z,96.00
2018-03-27T03:16:30.636Z,95.80
2018-03-27T03:18:33.259Z,95.70
2018-03-27T03:20:38.739Z,96.00
2018-03-27T03:22:41.324Z,95.60
2018-03-27T03:24:44.749Z,95.70
2018-03-27T03:26:47.333Z,95.80
2018-03-27T03:28:49.946Z,96.10
2018-03-27T03:30:52.567Z,95.80
2018-03-27T03:32:55.175Z,95.50
2018-03-27T03:34:57.791Z,95.40
2018-03-27T03:37:01.141Z,95.80
2018-03-27T03:39:03.731Z,95.80
2018-03-27T03:41:06.391Z,95.80
2018-03-27T03:43:09.009Z,95.60
2018-03-27T03:45:13.169Z,95.60
2018-03-27T03:47:15.802Z,95.60
2018-03-27T03:49:19.158Z,95.60
2018-03-27T03:51:21.773Z,95.60
2018-03-27T03:53:25.131Z,95.90
2018-03-27T03:55:27.717Z,95.90
2018-03-27T03:57:30.367Z,95.90
2018-03-27T03:59:33.770Z,95.90
2018-03-27T04:01:36.762Z,95.80
2018-03-27T04:03:39.348Z,95.80
2018-03-27T04:05:41.966Z,96.10
2018-03-27T04:07:44.605Z,95.80
2018-03-27T04:09:47.956Z,95.70
2018-03-27T04:11:50.574Z,95.70
2018-03-27T04:13:53.202Z,95.80
2018-03-27T04:15:55.785Z,95.90
2018-03-27T04:17:58.390Z,95.80
2018-03-27T04:20:01.009Z,95.80
2018-03-27T04:22:03.605Z,95.70
2018-03-27T04:24:06.993Z,95.60
2018-03-27T04:26:09.657Z,95.60
2018-03-27T04:28:13.002Z,95.90
2018-03-27T04:30:18.788Z,95.80
2018-03-27T04:32:21.382Z,95.80
2018-03-27T04:34:24.001Z,95.80
2018-03-27T04:36:27.369Z,95.90
2018-03-27T04:38:29.997Z,95.90
2018-03-27T04:40:32.602Z,95.70
2018-03-27T04:42:35.201Z,95.70
2018-03-27T04:44:37.827Z,95.70
2018-03-27T04:46:40.438Z,95.60
2018-03-27T04:48:43.055Z,95.50
2018-03-27T04:50:45.650Z,95.80
2018-03-27T04:52:48.246Z,95.70
2018-03-27T04:54:52.138Z,95.60
2018-03-27T04:56:54.726Z,95.70
2018-03-27T04:58:57.321Z,95.80
2018-03-27T05:00:59.929Z,96.20
2018-03-27T05:03:02.533Z,96.10
2018-03-27T05:05:05.165Z,96.20
2018-03-27T05:07:08.586Z,96.40
2018-03-27T05:09:11.186Z,96.20
2018-03-27T05:11:13.829Z,96.30
2018-03-27T05:13:16.429Z,96.30
2018-03-27T05:15:19.125Z,96.30
2018-03-27T05:17:21.776Z,96.10
2018-03-27T05:19:24.420Z,96.10
2018-03-27T05:21:27.877Z,96.20
2018-03-27T05:23:30.671Z,96.20
2018-03-27T05:25:33.270Z,96.10
2018-03-27T05:27:39.444Z,96.10
2018-03-27T05:29:42.796Z,96.10
2018-03-27T05:31:45.401Z,96.20
2018-03-27T05:33:48.025Z,96.10
2018-03-27T05:35:50.709Z,96.10
2018-03-27T05:37:53.333Z,95.80
2018-03-27T05:39:55.949Z,95.80
2018-03-27T05:41:58.651Z,95.70
2018-03-27T05:44:02.039Z,95.80
2018-03-27T05:46:04.757Z,95.80
2018-03-27T05:48:07.446Z,95.70
2018-03-27T05:50:10.155Z,95.50
2018-03-27T05:52:12.782Z,95.40
2018-03-27T05:54:15.398Z,95.40
2018-03-27T05:56:17.995Z,95.80
2018-03-27T05:58:20.711Z,96.00
2018-03-27T06:00:23.306Z,95.70
2018-03-27T06:02:25.953Z,95.70
2018-03-27T06:04:28.532Z,95.70
2018-03-27T06:06:31.238Z,95.80
2018-03-27T06:08:33.861Z,95.60
2018-03-27T06:10:37.218Z,95.80
2018-03-27T06:12:39.865Z,95.70
2018-03-27T06:14:42.527Z,95.50
2018-03-27T06:16:45.121Z,95.90
2018-03-27T06:18:47.737Z,95.80
2018-03-27T06:20:50.600Z,95.80
2018-03-27T06:22:53.197Z,95.90
2018-03-27T06:24:55.841Z,95.60
2018-03-27T06:26:58.509Z,95.80
2018-03-27T06:29:01.118Z,95.60
2018-03-27T06:31:03.742Z,95.30
2018-03-27T06:33:06.336Z,94.90
2018-03-27T06:35:08.938Z,95.10
2018-03-27T06:37:12.313Z,95.20
2018-03-27T06:39:15.189Z,95.20
2018-03-27T06:41:17.833Z,95.30
2018-03-27T06:43:21.299Z,95.60
2018-03-27T06:45:24.804Z,95.20
2018-03-27T06:47:27.418Z,95.20
2018-03-27T06:49:30.087Z,95.00
2018-03-27T06:51:32.706Z,94.80
2018-03-27T06:53:36.107Z,94.90
2018-03-27T06:55:39.493Z,94.80
2018-03-27T06:57:42.210Z,94.80
2018-03-27T06:59:45.533Z,95.00
2018-03-27T07:01:48.235Z,95.00
2018-03-27T07:03:50.872Z,95.20
2018-03-27T07:05:53.854Z,94.30
2018-03-27T07:07:56.456Z,94.10
2018-03-27T07:09:59.147Z,94.10
2018-03-27T07:12:02.532Z,93.90
2018-03-27T07:14:05.214Z,93.90
2018-03-27T07:16:08.635Z,94.40
2018-03-27T07:18:12.042Z,95.00
2018-03-27T07:20:15.756Z,94.80
2018-03-27T07:22:18.410Z,94.80
2018-03-27T07:24:21.028Z,94.80
2018-03-27T07:26:23.686Z,94.40
2018-03-27T07:28:26.274Z,94.60
2018-03-27T07:30:28.923Z,94.40
2018-03-27T07:32:31.934Z,94.50
2018-03-27T07:34:34.588Z,93.50
2018-03-27T07:36:37.207Z,93.10
2018-03-27T07:38:39.814Z,91.00
2018-03-27T07:40:42.417Z,90.80
2018-03-27T07:42:45.081Z,92.30
2018-03-27T07:44:47.697Z,91.20
2018-03-27T07:46:50.315Z,91.30
2018-03-27T07:48:52.913Z,90.10
2018-03-27T07:50:55.674Z,89.30
2018-03-27T07:52:58.279Z,88.00
2018-03-27T07:55:00.990Z,86.90
2018-03-27T07:57:05.597Z,87.60
2018-03-27T07:59:08.185Z,87.60
2018-03-27T08:01:10.780Z,87.10
2018-03-27T08:03:14.183Z,85.80
2018-03-27T08:05:16.823Z,85.70
2018-03-27T08:07:19.508Z,86.90
2018-03-27T08:09:22.894Z,84.30
2018-03-27T08:11:26.269Z,82.80
2018-03-27T08:13:28.884Z,82.00
2018-03-27T08:15:31.502Z,84.00
2018-03-27T08:17:34.186Z,83.20
2018-03-27T08:19:37.086Z,85.00
2018-03-27T08:21:39.683Z,83.40
2018-03-27T08:23:43.057Z,86.00
2018-03-27T08:25:46.409Z,87.40
2018-03-27T08:27:49.051Z,87.40
2018-03-27T08:29:51.654Z,88.50
2018-03-27T08:31:54.298Z,89.00
2018-03-27T08:33:57.689Z,88.30
2018-03-27T08:36:00.285Z,88.30
2018-03-27T08:38:02.892Z,89.00
2018-03-27T08:40:05.532Z,87.10
2018-03-27T08:42:08.118Z,88.40
2018-03-27T08:44:10.749Z,89.90
2018-03-27T08:46:14.138Z,88.50
2018-03-27T08:48:17.499Z,87.30
2018-03-27T08:50:20.142Z,87.30
2018-03-27T08:52:22.738Z,86.20
2018-03-27T08:54:25.339Z,85.70
2018-03-27T08:56:27.931Z,85.70
2018-03-27T08:58:31.306Z,85.20
2018-03-27T09:00:34.712Z,84.30
2018-03-27T09:02:38.078Z,84.00
2018-03-27T09:04:40.749Z,84.00
2018-03-27T09:06:43.344Z,84.20
2018-03-27T09:08:45.968Z,82.10
2018-03-27T09:10:48.593Z,82.30
2018-03-27T09:12:51.242Z,80.40
2018-03-27T09:14:53.826Z,80.20
2018-03-27T09:16:56.433Z,80.80
2018-03-27T09:19:01.518Z,79.60
2018-03-27T09:21:04.962Z,79.80
2018-03-27T09:23:08.355Z,78.20
2018-03-27T09:25:11.693Z,73.00
2018-03-27T09:27:14.325Z,73.00
2018-03-27T09:29:16.969Z,74.30
2018-03-27T09:31:19.557Z,76.70
2018-03-27T09:33:22.169Z,77.20
2018-03-27T09:35:24.780Z,75.20
2018-03-27T09:37:27.395Z,75.70
2018-03-27T09:39:30.805Z,69.00
2018-03-27T09:41:33.514Z,69.00
2018-03-27T09:43:36.198Z,70.30
2018-03-27T09:45:38.797Z,73.20
2018-03-27T09:47:41.410Z,71.90
2018-03-27T09:49:44.051Z,74.50
2018-03-27T09:51:46.644Z,75.20
2018-03-27T09:53:50.091Z,69.60
2018-03-27T09:55:52.689Z,69.60
2018-03-27T09:57:55.275Z,68.50
2018-03-27T09:59:58.688Z,63.30
2018-03-27T10:02:01.284Z,63.20
2018-03-27T10:04:03.893Z,61.50
2018-03-27T10:06:06.474Z,61.90
2018-03-27T10:08:09.146Z,61.10
2018-03-27T10:10:11.753Z,60.80
2018-03-27T10:12:15.138Z,59.10
2018-03-27T10:14:18.516Z,59.50
2018-03-27T10:16:21.896Z,60.90
2018-03-27T10:18:24.526Z,60.80
2018-03-27T10:20:27.144Z,59.20
2018-03-27T10:22:29.742Z,58.60
2018-03-27T10:24:33.253Z,57.60
2018-03-27T10:26:35.869Z,57.50
2018-03-27T10:28:38.466Z,56.00
2018-03-27T10:30:41.081Z,56.10
2018-03-27T10:32:43.726Z,58.50
2018-03-27T10:34:47.615Z,52.10
2018-03-27T10:36:51.072Z,54.20
2018-03-27T10:38:53.687Z,53.60
2018-03-27T10:40:56.321Z,53.80
2018-03-27T10:42:58.916Z,54.40
2018-03-27T10:45:01.518Z,54.70
2018-03-27T10:47:04.914Z,51.90
2018-03-27T10:49:07.502Z,51.80
2018-03-27T10:51:10.865Z,51.30
2018-03-27T10:53:13.487Z,51.20
2018-03-27T10:55:16.115Z,49.00
2018-03-27T10:57:18.752Z,50.50
2018-03-27T10:59:21.530Z,51.00
2018-03-27T11:01:24.155Z,54.30
2018-03-27T11:03:26.772Z,51.80
2018-03-27T11:05:29.377Z,51.30
2018-03-27T11:07:31.999Z,52.10
2018-03-27T11:09:35.373Z,49.80
2018-03-27T11:11:37.962Z,49.80
2018-03-27T11:13:41.359Z,51.50
2018-03-27T11:15:44.732Z,49.70
2018-03-27T11:17:47.315Z,49.70
2018-03-27T11:19:50.691Z,49.40
2018-03-27T11:21:53.288Z,49.40
2018-03-27T11:23:55.910Z,49.10
2018-03-27T11:25:58.517Z,49.60
2018-03-27T11:28:01.110Z,47.10
2018-03-27T11:30:04.471Z,50.10
2018-03-27T11:32:07.061Z,50.10
2018-03-27T11:34:09.746Z,51.00
2018-03-27T11:36:13.141Z,51.70
2018-03-27T11:38:16.496Z,53.30
2018-03-27T11:40:19.110Z,53.30
2018-03-27T11:42:22.470Z,52.00
2018-03-27T11:44:25.067Z,51.90
2018-03-27T11:46:27.782Z,47.50
2018-03-27T11:48:30.390Z,48.70
2018-03-27T11:50:32.978Z,51.80
2018-03-27T11:52:35.583Z,51.90
2018-03-27T11:54:38.995Z,62.50
2018-03-27T11:56:42.358Z,62.10
2018-03-27T11:58:45.812Z,60.60
2018-03-27T12:00:49.230Z,63.50
2018-03-27T12:02:51.877Z,63.50
2018-03-27T12:04:54.480Z,63.10
2018-03-27T12:06:58.610Z,65.40
2018-03-27T12:09:02.079Z,66.50
2018-03-27T12:11:04.670Z,66.30
2018-03-27T12:13:08.065Z,65.70
2018-03-27T12:15:11.425Z,66.00
2018-03-27T12:17:14.233Z,66.00
2018-03-27T12:19:17.589Z,67.20
2018-03-27T12:21:20.935Z,68.10
2018-03-27T12:23:23.674Z,68.00
2018-03-27T12:25:26.285Z,67.30
2018-03-27T12:27:29.662Z,67.10
2018-03-27T12:29:32.284Z,67.00
2018-03-27T12:31:34.978Z,67.90
2018-03-27T12:33:37.612Z,66.70
2018-03-27T12:35:40.502Z,65.90
2018-03-27T12:37:43.097Z,65.30
2018-03-27T12:39:45.767Z,66.40
2018-03-27T12:41:48.356Z,65.00
2018-03-27T12:43:50.973Z,63.30
2018-03-27T12:45:54.526Z,62.60
2018-03-27T12:47:57.947Z,62.40
2018-03-27T12:50:00.585Z,62.30
2018-03-27T12:52:03.177Z,63.30
2018-03-27T12:54:05.771Z,61.20
2018-03-27T12:56:08.384Z,62.80
2018-03-27T12:58:10.970Z,62.40
2018-03-27T13:00:13.635Z,63.90
2018-03-27T13:02:16.237Z,64.80
2018-03-27T13:04:18.833Z,68.00
2018-03-27T13:06:21.454Z,71.00
2018-03-27T13:08:24.039Z,69.70
2018-03-27T13:10:26.661Z,70.40
2018-03-27T13:12:29.256Z,68.70
2018-03-27T13:14:32.606Z,71.30
2018-03-27T13:16:36.207Z,71.30
2018-03-27T13:18:38.818Z,68.10
2018-03-27T13:20:42.210Z,65.60
2018-03-27T13:22:46.005Z,63.60
2018-03-27T13:24:48.558Z,63.60
2018-03-27T13:26:52.678Z,61.70
2018-03-27T13:28:55.282Z,61.60
2018-03-27T13:30:58.666Z,58.50
2018-03-27T13:33:02.056Z,59.90
2018-03-27T13:35:05.409Z,57.10
2018-03-27T13:37:08.798Z,57.00
2018-03-27T13:39:11.434Z,57.00
2018-03-27T13:41:14.076Z,59.80
2018-03-27T13:43:16.788Z,59.60
2018-03-27T13:45:19.411Z,61.20
2018-03-27T13:47:22.032Z,62.90
2018-03-27T13:49:24.650Z,64.10
2018-03-27T13:51:27.527Z,63.40
2018-03-27T13:53:30.156Z,63.10
2018-03-27T13:55:33.521Z,58.40
2018-03-27T13:57:36.134Z,58.30
2018-03-27T13:59:38.749Z,56.70
2018-03-27T14:01:41.354Z,57.40
2018-03-27T14:03:44.747Z,53.80
2018-03-27T14:05:47.362Z,53.70
2018-03-27T14:07:50.191Z,54.10
2018-03-27T14:09:53.581Z,53.50
2018-03-27T14:11:56.190Z,53.50
2018-03-27T14:13:59.614Z,56.50
2018-03-27T14:16:02.221Z,56.50
2018-03-27T14:18:04.842Z,53.60
2018-03-27T14:20:07.455Z,55.40
2018-03-27T14:22:10.103Z,58.70
2018-03-27T14:24:12.745Z,58.10
2018-03-27T14:26:16.104Z,59.40
2018-03-27T14:28:18.708Z,59.40
2018-03-27T14:30:22.090Z,61.00
2018-03-27T14:32:24.916Z,60.90
2018-03-27T14:34:27.629Z,61.30
2018-03-27T14:36:30.230Z,61.80
2018-03-27T14:38:33.585Z,60.50
2018-03-27T14:40:36.192Z,60.50
2018-03-27T14:42:39.561Z,62.20
2018-03-27T14:44:42.220Z,62.20
2018-03-27T14:46:45.208Z,62.50
2018-03-27T14:48:47.836Z,62.70
2018-03-27T14:50:51.218Z,58.50
2018-03-27T14:52:54.601Z,59.20
2018-03-27T14:54:57.310Z,59.10
2018-03-27T14:56:59.946Z,60.70
2018-03-27T14:59:04.204Z,60.80
2018-03-27T15:01:06.847Z,62.10
2018-03-27T15:03:10.227Z,61.40
2018-03-27T15:05:12.858Z,61.40
2018-03-27T15:07:15.475Z,62.60
2018-03-27T15:09:18.095Z,62.60
2018-03-27T15:11:24.440Z,63.80
2018-03-27T15:13:27.093Z,63.40
2018-03-27T15:15:30.461Z,59.90
2018-03-27T15:17:33.074Z,59.90
2018-03-27T15:19:36.430Z,61.10
2018-03-27T15:21:39.014Z,61.10
2018-03-27T15:23:41.626Z,60.00
2018-03-27T15:25:44.358Z,61.10
2018-03-27T15:27:46.977Z,60.50
2018-03-27T15:29:49.636Z,60.40
2018-03-27T15:31:53.057Z,63.20
2018-03-27T15:33:55.648Z,63.20
2018-03-27T15:35:58.282Z,60.30
2018-03-27T15:38:01.657Z,62.20
2018-03-27T15:40:04.262Z,62.20
2018-03-27T15:42:06.860Z,62.50
2018-03-27T15:44:09.489Z,63.90
2018-03-27T15:46:14.498Z,65.20
2018-03-27T15:48:17.250Z,65.00
2018-03-27T15:50:19.873Z,63.90
2018-03-27T15:52:22.473Z,60.20
2018-03-27T15:54:25.074Z,63.70
2018-03-27T15:56:27.726Z,63.40
2018-03-27T15:58:30.833Z,63.30
2018-03-27T16:00:33.447Z,63.90
2018-03-27T16:02:36.050Z,60.00
2018-03-27T16:04:38.686Z,63.10
2018-03-27T16:06:41.289Z,61.70
2018-03-27T16:08:44.662Z,62.10
2018-03-27T16:10:47.763Z,62.00
2018-03-27T16:12:51.184Z,61.50
2018-03-27T16:14:53.817Z,62.40
2018-03-27T16:16:56.427Z,61.70
2018-03-27T16:18:59.045Z,58.40
2018-03-27T16:21:04.319Z,57.40
2018-03-27T16:23:07.708Z,60.00
2018-03-27T16:25:11.207Z,60.30
2018-03-27T16:27:14.648Z,60.50
2018-03-27T16:29:17.243Z,59.90
2018-03-27T16:31:20.617Z,61.20
2018-03-27T16:33:23.223Z,61.10
2018-03-27T16:35:25.830Z,62.10
2018-03-27T16:37:28.432Z,60.70
2018-03-27T16:39:31.056Z,61.40
2018-03-27T16:41:33.646Z,62.80
2018-03-27T16:43:37.109Z,61.60
2018-03-27T16:45:39.689Z,61.60
2018-03-27T16:47:42.288Z,62.00
2018-03-27T16:49:45.717Z,63.00
2018-03-27T16:51:49.082Z,64.60
2018-03-27T16:53:51.681Z,64.50
2018-03-27T16:55:54.339Z,64.90
2018-03-27T16:57:56.950Z,65.10
2018-03-27T17:00:00.382Z,66.10
2018-03-27T17:02:03.003Z,66.10
2018-03-27T17:04:05.598Z,67.00
2018-03-27T17:06:08.214Z,66.80
2018-03-27T17:08:11.885Z,68.20
2018-03-27T17:10:14.558Z,68.10
2018-03-27T17:12:17.170Z,67.10
2018-03-27T17:14:19.787Z,67.10
2018-03-27T17:16:22.429Z,68.00
2018-03-27T17:18:25.055Z,67.40
2018-03-27T17:20:27.681Z,66.60
2018-03-27T17:22:30.333Z,66.70
2018-03-27T17:24:33.722Z,66.90
2018-03-27T17:26:37.123Z,67.10
2018-03-27T17:28:39.739Z,67.10
2018-03-27T17:30:42.361Z,67.20
2018-03-27T17:32:45.753Z,69.50
2018-03-27T17:34:48.366Z,69.50
2018-03-27T17:36:50.984Z,69.60
2018-03-27T17:38:53.595Z,68.80
2018-03-27T17:40:56.995Z,69.90
2018-03-27T17:42:59.622Z,69.90
2018-03-27T17:45:02.242Z,70.20
2018-03-27T17:47:04.956Z,70.80
2018-03-27T17:49:07.550Z,70.50
2018-03-27T17:51:10.469Z,70.70
2018-03-27T17:53:13.118Z,72.30
2018-03-27T17:55:15.738Z,72.60
2018-03-27T17:57:19.882Z,72.60
2018-03-27T17:59:23.262Z,73.10
2018-03-27T18:01:25.987Z,73.10
2018-03-27T18:03:28.653Z,73.40
2018-03-27T18:05:31.247Z,73.50
2018-03-27T18:07:34.684Z,74.00
2018-03-27T18:09:37.349Z,74.00
2018-03-27T18:11:39.952Z,72.00
2018-03-27T18:13:42.840Z,74.10
2018-03-27T18:15:46.281Z,74.40
2018-03-27T18:17:48.880Z,74.40
2018-03-27T18:19:51.518Z,73.70
2018-03-27T18:21:54.894Z,74.20
2018-03-27T18:23:58.329Z,74.00
2018-03-27T18:26:00.933Z,74.00
2018-03-27T18:28:03.589Z,74.70
2018-03-27T18:30:06.201Z,74.70
2018-03-27T18:32:08.803Z,75.30
2018-03-27T18:34:11.486Z,75.80
2018-03-27T18:36:14.095Z,74.60
2018-03-27T18:38:16.716Z,74.20
2018-03-27T18:40:20.109Z,74.70
2018-03-27T18:42:23.498Z,74.60
2018-03-27T18:44:26.918Z,75.50
2018-03-27T18:46:30.311Z,75.10
2018-03-27T18:48:32.920Z,75.00
2018-03-27T18:50:35.542Z,74.60
2018-03-27T18:52:38.914Z,75.80
2018-03-27T18:54:41.547Z,75.80
2018-03-27T18:56:44.209Z,76.10
2018-03-27T18:58:47.460Z,75.20
2018-03-27T19:00:50.129Z,75.60
2018-03-27T19:02:53.577Z,76.00
2018-03-27T19:04:56.210Z,75.90
2018-03-27T19:06:58.883Z,76.60
2018-03-27T19:09:01.549Z,75.80
2018-03-27T19:11:04.217Z,75.70
2018-03-27T19:13:06.862Z,75.80
2018-03-27T19:15:09.507Z,76.60
2018-03-27T19:17:12.920Z,77.50
2018-03-27T19:19:15.525Z,77.60
2018-03-27T19:21:18.125Z,77.60
2018-03-27T19:23:21.591Z,77.10
2018-03-27T19:25:24.195Z,77.10
2018-03-27T19:27:26.891Z,77.70
2018-03-27T19:29:30.410Z,77.90
2018-03-27T19:31:33.016Z,77.90
2018-03-27T19:33:36.437Z,79.30
2018-03-27T19:35:39.070Z,79.30
2018-03-27T19:37:41.781Z,78.90
2018-03-27T19:39:44.398Z,79.70
2018-03-27T19:41:47.025Z,78.40
2018-03-27T19:43:49.640Z,79.00
2018-03-27T19:45:52.305Z,78.70
2018-03-27T19:47:55.598Z,79.70
2018-03-27T19:49:59.105Z,80.10
2018-03-27T19:52:01.727Z,80.00
2018-03-27T19:54:04.391Z,78.30
2018-03-27T19:56:07.030Z,78.00
2018-03-27T19:58:09.655Z,75.00
2018-03-27T20:00:12.319Z,76.90
2018-03-27T20:02:14.942Z,75.70
2018-03-27T20:06:26.624Z,75.80
2018-03-27T20:08:29.285Z,73.70
2018-03-27T20:10:31.915Z,74.40
2018-03-27T20:12:34.535Z,73.80
2018-03-27T20:14:37.169Z,74.10
2018-03-27T20:16:39.797Z,74.40
2018-03-27T20:18:42.479Z,74.60
2018-03-27T20:20:45.855Z,76.40
2018-03-27T20:22:48.470Z,76.40
2018-03-27T20:24:51.101Z,76.20
2018-03-27T20:26:53.740Z,77.40
2018-03-27T20:28:56.376Z,78.20
2018-03-27T20:30:59.811Z,79.40
2018-03-27T20:33:02.450Z,79.30
2018-03-27T20:35:05.176Z,80.10
2018-03-27T20:37:07.842Z,81.90
2018-03-27T20:39:10.480Z,82.40
2018-03-27T20:41:14.490Z,82.30
2018-03-27T20:43:17.149Z,83.00
2018-03-27T20:45:19.864Z,84.00
2018-03-27T20:47:22.485Z,84.40
2018-03-27T20:49:25.860Z,84.70
2018-03-27T20:51:28.497Z,84.70
2018-03-27T20:53:31.121Z,84.30
2018-03-27T20:55:33.931Z,85.40
2018-03-27T20:57:37.333Z,84.70
2018-03-27T20:59:39.925Z,84.60
2018-03-27T21:01:42.525Z,86.30
2018-03-27T21:03:45.908Z,86.30
2018-03-27T21:05:49.286Z,85.90
2018-03-27T21:07:51.935Z,85.90
2018-03-27T21:09:55.371Z,85.00
2018-03-27T21:11:57.978Z,85.00
2018-03-27T21:14:00.630Z,85.40
2018-03-27T21:16:03.221Z,86.00
2018-03-27T21:18:05.845Z,86.90
2018-03-27T21:20:08.439Z,86.90
2018-03-27T21:22:11.082Z,87.90
2018-03-27T21:24:14.478Z,88.80
2018-03-27T21:26:17.091Z,88.80
2018-03-27T21:28:19.763Z,88.90
2018-03-27T21:30:22.455Z,89.40
2018-03-27T21:32:25.103Z,90.20
2018-03-27T21:34:27.715Z,90.50
2018-03-27T21:36:30.324Z,90.70
2018-03-27T21:38:33.696Z,91.00
2018-03-27T21:40:36.331Z,91.00
2018-03-27T21:42:38.933Z,91.80
2018-03-27T21:44:41.569Z,92.00
2018-03-27T21:46:44.309Z,91.90
2018-03-27T21:48:47.699Z,92.50
2018-03-27T21:50:51.134Z,92.60
2018-03-27T21:52:53.726Z,92.50
2018-03-27T21:54:56.382Z,92.40
2018-03-27T21:57:00.277Z,92.80
2018-03-27T21:59:02.845Z,93.10
2018-03-27T22:01:05.491Z,93.20
2018-03-27T22:03:08.087Z,93.50
2018-03-27T22:05:11.661Z,94.10
2018-03-27T22:07:14.314Z,94.50
2018-03-27T22:09:17.014Z,94.50
2018-03-27T22:11:19.598Z,94.30
2018-03-27T22:13:22.238Z,95.00
2018-03-27T22:15:25.294Z,95.50
2018-03-27T22:17:28.697Z,95.70
2018-03-27T22:19:31.318Z,95.70
2018-03-27T22:21:34.724Z,95.90
2018-03-27T22:23:38.074Z,96.10
2018-03-27T22:25:40.694Z,96.10
2018-03-27T22:27:44.076Z,96.70
2018-03-27T22:29:47.438Z,96.80
2018-03-27T22:31:50.042Z,96.80
2018-03-27T22:33:53.481Z,96.50
2018-03-27T22:35:56.074Z,96.50
2018-03-27T22:37:58.716Z,96.70
2018-03-27T22:40:02.079Z,96.90
2018-03-27T22:42:05.607Z,96.80
2018-03-27T22:44:08.233Z,96.80
2018-03-27T22:46:10.898Z,96.90
2018-03-27T22:48:13.494Z,96.90
2018-03-27T22:50:16.860Z,96.90
2018-03-27T22:54:25.903Z,97.00
2018-03-27T22:56:28.505Z,97.00
2018-03-27T22:58:31.883Z,96.90
2018-03-27T23:00:34.485Z,96.90
2018-03-27T23:02:37.111Z,97.30
2018-03-27T23:04:39.730Z,97.40
2018-03-27T23:06:43.097Z,97.80
2018-03-27T23:08:46.491Z,97.70
2018-03-27T23:10:49.090Z,97.70
2018-03-27T23:12:51.826Z,97.60
2018-03-27T23:14:54.426Z,97.30
2018-03-27T23:16:57.776Z,97.20
2018-03-27T23:19:00.438Z,97.20
2018-03-27T23:21:03.030Z,97.50
2018-03-27T23:23:05.617Z,97.20
2018-03-27T23:25:08.245Z,97.10
2018-03-27T23:27:10.849Z,97.20
2018-03-27T23:29:13.468Z,97.30
2018-03-27T23:31:17.154Z,97.20
2018-03-27T23:33:19.805Z,97.10
2018-03-27T23:35:22.414Z,97.00
2018-03-27T23:37:25.788Z,96.90
2018-03-27T23:39:28.392Z,96.80
2018-03-27T23:41:31.074Z,97.00
2018-03-27T23:43:33.772Z,96.80
2018-03-27T23:45:36.404Z,97.30
2018-03-27T23:47:43.631Z,97.40
2018-03-27T23:49:46.689Z,97.30
2018-03-27T23:51:51.157Z,97.00
2018-03-27T23:53:54.020Z,97.00
2018-03-27T23:55:56.796Z,96.60
2018-03-27T23:58:02.884Z,96.40
